createdAt,value
2022-11-23T00:00:52.994Z,6.71
2022-11-23T00:05:59.395Z,5.58
2022-11-23T00:11:05.695Z,5.69
2022-11-23T00:16:11.788Z,4.99
2022-11-23T00:21:17.939Z,5.24
2022-11-23T00:26:24.000Z,4.69
2022-11-23T00:31:30.568Z,4.32
2022-11-23T00:36:36.693Z,6.69
2022-11-23T00:41:42.926Z,4.38
2022-11-23T00:46:49.260Z,4.46
2022-11-23T00:51:55.499Z,5.23
2022-11-23T00:57:01.633Z,7.06
2022-11-23T01:02:07.856Z,5.36
2022-11-23T01:07:14.244Z,5.86
2022-11-23T01:12:20.432Z,4.18
2022-11-23T01:17:26.585Z,6.00
2022-11-23T01:22:32.736Z,5.11
2022-11-23T01:27:38.815Z,4.39
2022-11-23T01:32:44.954Z,4.50
2022-11-23T01:37:51.337Z,4.92
2022-11-23T01:42:57.610Z,4.95
2022-11-23T01:48:03.665Z,5.58
2022-11-23T01:53:09.843Z,5.37
2022-11-23T01:58:15.886Z,4.34
2022-11-23T02:03:22.098Z,5.21
2022-11-23T02:08:29.063Z,4.63
2022-11-23T02:13:35.203Z,4.63
2022-11-23T02:18:41.375Z,4.97
2022-11-23T02:23:47.871Z,5.02
2022-11-23T02:28:54.241Z,6.86
2022-11-23T02:34:00.452Z,7.17
2022-11-23T02:39:06.817Z,4.57
2022-11-23T02:44:12.959Z,4.47
2022-11-23T02:49:19.020Z,5.41
2022-11-23T02:54:25.226Z,4.07
2022-11-23T02:59:31.422Z,4.72
2022-11-23T03:04:37.573Z,7.09
2022-11-23T03:09:43.650Z,4.69
2022-11-23T03:14:49.771Z,5.57
2022-11-23T03:19:55.956Z,5.93
2022-11-23T03:25:02.149Z,4.83
2022-11-23T03:30:08.230Z,5.56
2022-11-23T03:35:14.396Z,6.68
2022-11-23T03:40:20.462Z,6.74
2022-11-23T03:45:26.675Z,5.40
2022-11-23T03:50:32.857Z,7.33
2022-11-23T03:55:39.012Z,5.24
2022-11-23T04:00:45.442Z,7.34
2022-11-23T04:05:51.559Z,8.09
2022-11-23T04:10:57.631Z,11.04
2022-11-23T04:16:03.758Z,8.74
2022-11-23T04:21:09.905Z,7.03
2022-11-23T04:26:16.194Z,9.34
2022-11-23T04:31:22.340Z,9.47
2022-11-23T04:36:28.563Z,8.88
2022-11-23T04:41:34.642Z,9.57
2022-11-23T04:46:40.856Z,11.72
2022-11-23T04:51:47.011Z,9.31
2022-11-23T04:56:53.542Z,11.07
2022-11-23T05:01:59.601Z,10.62
2022-11-23T05:07:06.168Z,11.24
2022-11-23T05:12:12.195Z,11.48
2022-11-23T05:17:18.686Z,11.57
2022-11-23T05:22:24.780Z,10.50
2022-11-23T05:27:30.935Z,13.60
2022-11-23T05:32:37.022Z,14.89
2022-11-23T05:37:43.281Z,12.97
2022-11-23T05:42:49.459Z,11.95
2022-11-23T05:47:55.565Z,14.72
2022-11-23T05:53:01.646Z,15.76
2022-11-23T05:58:08.206Z,14.31
2022-11-23T06:03:14.368Z,14.96
2022-11-23T06:08:21.007Z,16.06
2022-11-23T06:13:27.068Z,22.02
2022-11-23T06:18:34.129Z,16.21
2022-11-23T06:23:40.572Z,18.24
2022-11-23T06:28:47.178Z,14.86
2022-11-23T06:33:53.239Z,19.48
2022-11-23T06:39:00.206Z,19.25
2022-11-23T06:44:06.601Z,16.63
2022-11-23T06:49:12.879Z,16.77
2022-11-23T06:54:22.198Z,17.81
2022-11-23T06:59:25.022Z,17.31
2022-11-23T07:04:31.237Z,19.03
2022-11-23T07:09:37.638Z,18.18
2022-11-23T07:14:43.705Z,17.74
2022-11-23T07:19:50.411Z,20.89
2022-11-23T07:24:56.472Z,20.38
2022-11-23T07:30:02.643Z,17.86
2022-11-23T07:35:08.703Z,17.95
2022-11-23T07:40:14.853Z,17.63
2022-11-23T07:45:20.950Z,18.23
2022-11-23T07:50:27.175Z,18.62
2022-11-23T07:55:33.229Z,17.30
2022-11-23T08:00:39.421Z,15.97
2022-11-23T08:05:45.512Z,20.13
2022-11-23T08:10:53.966Z,15.48
2022-11-23T08:15:57.304Z,14.91
2022-11-23T08:21:03.464Z,13.24
2022-11-23T08:26:13.593Z,15.66
2022-11-23T08:31:15.275Z,14.11
2022-11-23T08:36:21.329Z,14.10
2022-11-23T08:41:27.493Z,15.07
2022-11-23T08:46:33.548Z,16.33
2022-11-23T08:51:42.464Z,16.61
2022-11-23T08:56:46.075Z,13.07
2022-11-23T09:01:52.556Z,14.69
2022-11-23T09:06:58.584Z,15.52
2022-11-23T09:12:04.763Z,15.68
2022-11-23T09:17:10.814Z,15.09
2022-11-23T09:22:17.080Z,19.17
2022-11-23T09:27:23.152Z,17.36
2022-11-23T09:32:29.286Z,16.01
2022-11-23T09:37:35.345Z,19.00
2022-11-23T09:42:41.600Z,18.03
2022-11-23T09:47:47.691Z,18.77
2022-11-23T09:52:53.828Z,17.11
2022-11-23T09:57:59.924Z,17.77
2022-11-23T10:03:06.200Z,20.03
2022-11-23T10:08:12.248Z,18.82
2022-11-23T10:13:18.363Z,19.39
2022-11-23T10:18:24.510Z,19.22
2022-11-23T10:23:30.719Z,16.80
2022-11-23T10:28:36.783Z,19.61
2022-11-23T10:33:42.936Z,19.48
2022-11-23T10:38:49.007Z,17.34
2022-11-23T10:43:55.166Z,17.53
2022-11-23T10:49:01.224Z,18.06
2022-11-23T10:54:07.446Z,13.93
2022-11-23T10:59:13.504Z,17.45
2022-11-23T11:04:19.665Z,16.90
2022-11-23T11:09:25.718Z,14.35
2022-11-23T11:14:42.814Z,12.91
2022-11-23T11:19:37.459Z,17.72
2022-11-23T11:24:44.151Z,14.77
2022-11-23T11:29:50.205Z,14.89
2022-11-23T11:34:56.344Z,12.49
2022-11-23T11:40:02.442Z,15.05
2022-11-23T11:45:08.557Z,13.71
2022-11-23T11:50:14.682Z,14.18
2022-11-23T11:55:20.817Z,13.40
2022-11-23T12:00:26.862Z,11.25
2022-11-23T12:05:33.113Z,11.83
2022-11-23T12:10:39.171Z,11.95
2022-11-23T12:15:49.830Z,12.17
2022-11-23T12:20:50.987Z,13.92
2022-11-23T12:25:57.258Z,12.92
2022-11-23T12:31:03.352Z,13.09
2022-11-23T12:36:09.542Z,13.36
2022-11-23T12:41:15.916Z,12.60
2022-11-23T12:46:22.284Z,11.66
2022-11-23T12:51:28.299Z,10.95
2022-11-23T12:56:34.482Z,10.81
2022-11-23T13:01:40.725Z,8.21
2022-11-23T13:07:12.297Z,8.47
2022-11-23T13:11:52.799Z,7.53
2022-11-23T13:16:58.975Z,8.07
2022-11-23T13:22:05.014Z,9.27
2022-11-23T13:27:11.486Z,10.05
2022-11-23T13:32:17.654Z,7.73
2022-11-23T13:37:23.735Z,8.46
2022-11-23T13:42:29.835Z,9.74
2022-11-23T13:47:40.775Z,9.25
2022-11-23T13:52:41.744Z,6.30
2022-11-23T13:57:47.961Z,5.70
2022-11-23T14:02:54.013Z,6.41
2022-11-23T14:08:00.232Z,5.79
2022-11-23T14:13:06.315Z,6.42
2022-11-23T14:18:12.759Z,7.33
2022-11-23T14:23:18.830Z,8.16
2022-11-23T14:28:25.012Z,5.95
2022-11-23T14:33:31.128Z,5.24
2022-11-23T14:38:37.410Z,5.41
2022-11-23T14:43:43.502Z,5.93
2022-11-23T14:48:49.776Z,7.34
2022-11-23T14:53:55.836Z,7.12
2022-11-23T14:59:02.112Z,6.03
2022-11-23T15:04:09.078Z,8.21
2022-11-23T15:09:15.743Z,8.27
2022-11-23T15:14:21.798Z,10.24
2022-11-23T15:19:28.046Z,8.15
2022-11-23T15:24:34.375Z,6.89
2022-11-23T15:29:40.011Z,7.73
2022-11-23T15:35:26.297Z,6.56
2022-11-23T15:40:32.454Z,8.27
2022-11-23T15:45:38.676Z,7.69
2022-11-23T15:50:45.637Z,6.02
2022-11-23T15:55:51.717Z,6.77
2022-11-23T16:01:00.387Z,8.42
2022-11-23T16:06:03.577Z,10.17
2022-11-23T16:11:09.810Z,7.87
2022-11-23T16:16:16.136Z,8.39
2022-11-23T16:21:22.046Z,8.61
2022-11-23T16:26:28.118Z,8.03
2022-11-23T16:31:34.515Z,9.60
2022-11-23T16:36:40.905Z,12.11
2022-11-23T16:41:47.090Z,11.75
2022-11-23T16:46:53.154Z,14.64
2022-11-23T16:51:59.365Z,9.63
2022-11-23T16:57:05.520Z,11.94
2022-11-23T17:02:11.729Z,13.95
2022-11-23T17:07:17.762Z,11.02
2022-11-23T17:12:23.965Z,10.88
2022-11-23T17:17:30.121Z,12.29
2022-11-23T17:22:36.332Z,13.86
2022-11-23T17:27:42.401Z,13.98
2022-11-23T17:32:48.667Z,14.71
2022-11-23T17:37:54.739Z,12.48
2022-11-23T17:43:00.909Z,12.02
2022-11-23T17:48:07.008Z,14.50
2022-11-23T17:53:13.338Z,11.29
2022-11-23T17:58:19.385Z,13.31
2022-11-23T18:03:25.596Z,12.21
2022-11-23T18:08:32.033Z,11.24
2022-11-23T18:13:38.342Z,14.85
2022-11-23T18:18:44.420Z,13.47
2022-11-23T18:23:51.043Z,11.18
2022-11-23T18:28:57.138Z,14.28
2022-11-23T18:34:03.348Z,8.88
2022-11-23T18:39:09.496Z,13.20
2022-11-23T18:44:15.735Z,10.47
2022-11-23T18:49:21.834Z,15.16
2022-11-23T18:54:28.050Z,13.02
2022-11-23T18:59:56.913Z,11.67
2022-11-23T19:04:40.093Z,11.71
2022-11-23T19:09:46.268Z,11.11
2022-11-23T19:14:52.439Z,13.79
2022-11-23T19:19:58.624Z,13.31
2022-11-23T19:25:04.799Z,16.11
2022-11-23T19:30:10.991Z,10.58
2022-11-23T19:35:17.162Z,12.74
2022-11-23T19:40:23.312Z,11.42
2022-11-23T19:45:29.540Z,11.41
2022-11-23T19:50:35.590Z,11.78
2022-11-23T19:55:41.912Z,12.31
2022-11-23T20:00:48.120Z,12.86
2022-11-23T20:05:54.266Z,15.37
2022-11-23T20:11:00.352Z,13.25
2022-11-23T20:16:06.651Z,8.32
2022-11-23T20:21:12.681Z,11.76
2022-11-23T20:26:18.858Z,12.96
2022-11-23T20:31:24.942Z,11.54
2022-11-23T20:36:31.044Z,13.15
2022-11-23T20:41:37.200Z,11.54
2022-11-23T20:47:02.996Z,13.92
2022-11-23T20:51:49.298Z,9.16
2022-11-23T20:56:55.407Z,11.01
2022-11-23T21:02:01.993Z,10.71
2022-11-23T21:07:08.220Z,10.06
2022-11-23T21:12:14.352Z,10.87
2022-11-23T21:17:20.894Z,12.36
2022-11-23T21:22:27.001Z,14.91
2022-11-23T21:27:33.217Z,14.07
2022-11-23T21:32:39.420Z,16.20
2022-11-23T21:37:45.589Z,14.18
2022-11-23T21:42:51.644Z,13.34
2022-11-23T21:47:57.770Z,10.88
2022-11-23T21:53:03.893Z,13.68
2022-11-23T21:58:10.096Z,11.33
2022-11-23T22:03:16.267Z,8.64
2022-11-23T22:08:29.723Z,10.71
2022-11-23T22:13:32.760Z,12.63
2022-11-23T22:18:34.710Z,8.83
2022-11-23T22:23:40.852Z,10.46
2022-11-23T22:28:47.087Z,12.95
2022-11-23T22:33:53.223Z,10.08
2022-11-23T22:39:01.653Z,10.52
2022-11-23T22:44:05.665Z,13.12
2022-11-23T22:49:11.967Z,11.89
2022-11-23T22:54:18.249Z,11.53
2022-11-23T22:59:24.964Z,11.63
2022-11-23T23:04:31.480Z,10.33
2022-11-23T23:09:36.761Z,9.20
2022-11-23T23:14:42.873Z,9.75
2022-11-23T23:19:49.116Z,12.81
2022-11-23T23:24:55.191Z,10.33
2022-11-23T23:30:01.687Z,11.87
2022-11-23T23:35:07.807Z,10.15
2022-11-23T23:40:13.957Z,10.07
2022-11-23T23:45:20.017Z,11.44
2022-11-23T23:50:26.279Z,8.84
2022-11-23T23:55:32.746Z,12.38
